首页
METAR-TAF:

METAR-TAF

机场 :

奥尔良, 法国

纬度: 47-59N, 经度: 001-45E, 海拔: 126米

当前天气观测

该预报发布于43分钟前的17:30 UTC
风速7节,风向南转西南
温度 8°C
湿度 71%
气压 1030 hPa
能见度10公里或以上
1500米以下无云,无积雨云

METAR: LFOJ 211730Z AUTO 21007KT CAVOK 08/03 Q1030

时间: 19:13 (18:13 UTC)

预报

该预报发布于4小时和13分钟前的14:00 UTC
预报有效从21日的 15点(UTC)到 22日的 15点(UTC)
风速10节,风向西南
能见度10公里或以上
多云层高于3200英尺
几率 30% :
短暂存在
从 22日的 04点(UTC)到 22日的 08点(UTC)
能見度: 4900
轻雾

TAF: LFOJ 211400Z 2115/2215 22010KT 9999 BKN032 PROB30 TEMPO 2204/2208 4900 BR

超过4000个机场的气象观测和天气预报(METAR&TAF报告)。

可查询的气象台以黄色和红色小点在地图上表示。

将鼠标移到小点上方,可查看气象台名称。

然后点击查看天气观测和预报。

如需切换地图:点击带黑十字的绿色按钮放大地图;点击带横线的绿色按钮缩小地图;或者点击绿色箭头查看邻近地区的地图。


METAR-TAF: